Terminal Aerodrome Forecast
Issued by NWS

Home | Current Version | Previous Version | Text Only | Print | Product List | Glossary On
Versions: 1 2 3 4 5 6 7 8 9 10 11 12 13 14 15 16
000
FTUS41 KBTV 232320
TAFMPV
TAF
KMPV 232320Z 2400/2424 31006KT P6SM SKC
     FM240300 VRB02KT P6SM FEW250
     FM241300 18007KT P6SM VCSH SCT035 OVC060
     FM241500 18008G15KT 1 1/2SM -SN BR BKN010 OVC020
     FM241800 18011KT 2SM -RASN BR SCT010 OVC015
     FM242100 17006KT 3SM -RA BR SCT010 OVC015=

USA.gov is the U.S. government's official web portal to all federal, state and local government web resources and services.